sensor_id;sensor_type;location;lat;lon;timestamp;P1;durP1;ratioP1;P2;durP2;ratioP2
16634;SDS011;8431;52.458;9.998;2023-07-28T00:00:15;8.38;;;7.57;;
16634;SDS011;8431;52.458;9.998;2023-07-28T00:02:46;9.50;;;7.88;;
16634;SDS011;8431;52.458;9.998;2023-07-28T00:05:26;7.93;;;7.32;;
16634;SDS011;8431;52.458;9.998;2023-07-28T00:07:57;8.32;;;7.63;;
16634;SDS011;8431;52.458;9.998;2023-07-28T00:10:28;9.77;;;7.93;;
16634;SDS011;8431;52.458;9.998;2023-07-28T00:12:56;8.10;;;7.40;;
16634;SDS011;8431;52.458;9.998;2023-07-28T00:15:23;9.25;;;7.53;;
16634;SDS011;8431;52.458;9.998;2023-07-28T00:17:51;7.82;;;7.13;;
16634;SDS011;8431;52.458;9.998;2023-07-28T00:20:18;7.93;;;7.40;;
16634;SDS011;8431;52.458;9.998;2023-07-28T00:22:45;8.13;;;7.32;;
16634;SDS011;8431;52.458;9.998;2023-07-28T00:25:19;7.95;;;7.35;;
16634;SDS011;8431;52.458;9.998;2023-07-28T00:27:47;8.27;;;7.68;;
16634;SDS011;8431;52.458;9.998;2023-07-28T00:30:14;9.20;;;7.70;;
16634;SDS011;8431;52.458;9.998;2023-07-28T00:32:41;8.95;;;8.07;;
16634;SDS011;8431;52.458;9.998;2023-07-28T00:35:11;7.65;;;6.85;;
16634;SDS011;8431;52.458;9.998;2023-07-28T00:37:38;7.38;;;6.85;;
16634;SDS011;8431;52.458;9.998;2023-07-28T00:40:07;7.22;;;6.53;;
16634;SDS011;8431;52.458;9.998;2023-07-28T00:42:36;8.25;;;6.43;;
16634;SDS011;8431;52.458;9.998;2023-07-28T00:45:03;7.53;;;7.03;;
16634;SDS011;8431;52.458;9.998;2023-07-28T00:47:31;6.70;;;6.22;;
16634;SDS011;8431;52.458;9.998;2023-07-28T00:49:58;7.35;;;6.47;;
16634;SDS011;8431;52.458;9.998;2023-07-28T00:52:25;7.10;;;6.40;;
16634;SDS011;8431;52.458;9.998;2023-07-28T00:54:52;6.72;;;6.03;;
16634;SDS011;8431;52.458;9.998;2023-07-28T00:57:21;7.15;;;6.38;;
16634;SDS011;8431;52.458;9.998;2023-07-28T00:59:49;7.00;;;6.30;;
16634;SDS011;8431;52.458;9.998;2023-07-28T01:02:17;6.13;;;5.72;;
16634;SDS011;8431;52.458;9.998;2023-07-28T01:04:48;6.07;;;5.57;;
16634;SDS011;8431;52.458;9.998;2023-07-28T01:07:17;6.65;;;6.15;;
16634;SDS011;8431;52.458;9.998;2023-07-28T01:09:50;6.40;;;6.00;;
16634;SDS011;8431;52.458;9.998;2023-07-28T01:12:27;7.00;;;6.32;;
16634;SDS011;8431;52.458;9.998;2023-07-28T01:14:55;7.18;;;6.68;;
16634;SDS011;8431;52.458;9.998;2023-07-28T01:17:25;6.10;;;5.63;;
16634;SDS011;8431;52.458;9.998;2023-07-28T01:19:53;8.13;;;6.70;;
16634;SDS011;8431;52.458;9.998;2023-07-28T01:22:26;8.32;;;7.57;;
16634;SDS011;8431;52.458;9.998;2023-07-28T01:25:27;7.57;;;6.88;;
16634;SDS011;8431;52.458;9.998;2023-07-28T01:28:08;7.82;;;7.20;;
16634;SDS011;8431;52.458;9.998;2023-07-28T01:30:37;7.78;;;7.00;;
16634;SDS011;8431;52.458;9.998;2023-07-28T01:33:05;7.57;;;6.97;;
16634;SDS011;8431;52.458;9.998;2023-07-28T01:35:33;7.88;;;7.07;;
16634;SDS011;8431;52.458;9.998;2023-07-28T01:38:02;8.93;;;8.13;;
16634;SDS011;8431;52.458;9.998;2023-07-28T01:40:30;9.18;;;8.40;;
16634;SDS011;8431;52.458;9.998;2023-07-28T01:42:57;8.88;;;7.10;;
16634;SDS011;8431;52.458;9.998;2023-07-28T01:45:25;7.93;;;7.13;;
16634;SDS011;8431;52.458;9.998;2023-07-28T01:47:52;8.80;;;7.65;;
16634;SDS011;8431;52.458;9.998;2023-07-28T01:50:19;9.07;;;8.18;;
16634;SDS011;8431;52.458;9.998;2023-07-28T01:52:46;7.82;;;7.07;;
16634;SDS011;8431;52.458;9.998;2023-07-28T01:55:16;9.15;;;8.02;;
16634;SDS011;8431;52.458;9.998;2023-07-28T01:57:49;9.00;;;7.88;;
16634;SDS011;8431;52.458;9.998;2023-07-28T02:00:20;8.57;;;7.78;;
16634;SDS011;8431;52.458;9.998;2023-07-28T02:02:49;7.55;;;7.00;;
16634;SDS011;8431;52.458;9.998;2023-07-28T02:05:16;7.63;;;7.03;;
16634;SDS011;8431;52.458;9.998;2023-07-28T02:07:43;7.68;;;7.07;;
16634;SDS011;8431;52.458;9.998;2023-07-28T02:10:10;7.10;;;6.50;;
16634;SDS011;8431;52.458;9.998;2023-07-28T02:12:37;8.05;;;6.72;;
16634;SDS011;8431;52.458;9.998;2023-07-28T02:15:05;7.32;;;6.70;;
16634;SDS011;8431;52.458;9.998;2023-07-28T02:17:33;7.03;;;6.43;;
16634;SDS011;8431;52.458;9.998;2023-07-28T02:20:02;7.93;;;6.43;;
16634;SDS011;8431;52.458;9.998;2023-07-28T02:22:30;7.45;;;6.65;;
16634;SDS011;8431;52.458;9.998;2023-07-28T02:24:57;8.40;;;6.25;;
16634;SDS011;8431;52.458;9.998;2023-07-28T02:27:26;7.13;;;6.47;;
16634;SDS011;8431;52.458;9.998;2023-07-28T02:29:53;9.15;;;6.38;;
16634;SDS011;8431;52.458;9.998;2023-07-28T02:32:21;7.60;;;6.53;;
16634;SDS011;8431;52.458;9.998;2023-07-28T02:34:48;7.85;;;6.90;;
16634;SDS011;8431;52.458;9.998;2023-07-28T02:37:16;7.88;;;7.22;;
16634;SDS011;8431;52.458;9.998;2023-07-28T02:39:43;8.38;;;7.50;;
16634;SDS011;8431;52.458;9.998;2023-07-28T02:42:11;9.88;;;7.30;;
16634;SDS011;8431;52.458;9.998;2023-07-28T02:44:38;7.68;;;6.93;;
16634;SDS011;8431;52.458;9.998;2023-07-28T02:47:05;10.80;;;8.20;;
16634;SDS011;8431;52.458;9.998;2023-07-28T02:49:32;9.20;;;8.30;;
16634;SDS011;8431;52.458;9.998;2023-07-28T02:51:59;9.98;;;7.93;;
16634;SDS011;8431;52.458;9.998;2023-07-28T02:54:29;11.38;;;7.82;;
16634;SDS011;8431;52.458;9.998;2023-07-28T02:56:59;8.20;;;7.40;;
16634;SDS011;8431;52.458;9.998;2023-07-28T02:59:26;10.15;;;7.70;;
16634;SDS011;8431;52.458;9.998;2023-07-28T03:01:53;9.77;;;7.72;;
16634;SDS011;8431;52.458;9.998;2023-07-28T03:04:22;9.93;;;7.10;;
16634;SDS011;8431;52.458;9.998;2023-07-28T03:06:49;9.38;;;6.97;;
16634;SDS011;8431;52.458;9.998;2023-07-28T03:09:19;8.65;;;6.60;;
16634;SDS011;8431;52.458;9.998;2023-07-28T03:11:47;8.10;;;6.70;;
16634;SDS011;8431;52.458;9.998;2023-07-28T03:14:14;8.00;;;7.20;;
16634;SDS011;8431;52.458;9.998;2023-07-28T03:16:43;7.82;;;7.00;;
16634;SDS011;8431;52.458;9.998;2023-07-28T03:19:10;7.43;;;6.72;;
16634;SDS011;8431;52.458;9.998;2023-07-28T03:21:39;7.13;;;6.50;;
16634;SDS011;8431;52.458;9.998;2023-07-28T03:24:06;7.43;;;6.75;;
16634;SDS011;8431;52.458;9.998;2023-07-28T03:26:33;7.72;;;6.50;;
16634;SDS011;8431;52.458;9.998;2023-07-28T03:29:01;7.18;;;6.60;;
16634;SDS011;8431;52.458;9.998;2023-07-28T03:31:28;7.95;;;7.28;;
16634;SDS011;8431;52.458;9.998;2023-07-28T03:33:55;7.85;;;6.57;;
16634;SDS011;8431;52.458;9.998;2023-07-28T03:36:23;9.68;;;7.35;;
16634;SDS011;8431;52.458;9.998;2023-07-28T03:38:49;7.55;;;6.78;;
16634;SDS011;8431;52.458;9.998;2023-07-28T03:41:16;7.57;;;6.80;;
16634;SDS011;8431;52.458;9.998;2023-07-28T03:43:43;7.20;;;6.50;;
16634;SDS011;8431;52.458;9.998;2023-07-28T03:46:12;7.55;;;5.90;;
16634;SDS011;8431;52.458;9.998;2023-07-28T03:48:40;6.65;;;6.15;;
16634;SDS011;8431;52.458;9.998;2023-07-28T03:51:06;6.80;;;5.95;;
16634;SDS011;8431;52.458;9.998;2023-07-28T03:53:33;6.85;;;5.65;;
16634;SDS011;8431;52.458;9.998;2023-07-28T03:56:01;6.57;;;6.13;;
16634;SDS011;8431;52.458;9.998;2023-07-28T03:58:28;6.50;;;6.00;;
16634;SDS011;8431;52.458;9.998;2023-07-28T04:00:55;6.40;;;5.80;;
16634;SDS011;8431;52.458;9.998;2023-07-28T04:03:24;7.00;;;6.38;;
16634;SDS011;8431;52.458;9.998;2023-07-28T04:05:53;6.70;;;6.18;;
16634;SDS011;8431;52.458;9.998;2023-07-28T04:08:20;6.47;;;5.93;;
16634;SDS011;8431;52.458;9.998;2023-07-28T04:10:47;6.57;;;5.68;;
16634;SDS011;8431;52.458;9.998;2023-07-28T04:13:14;5.03;;;4.72;;
16634;SDS011;8431;52.458;9.998;2023-07-28T04:15:41;6.15;;;5.72;;
16634;SDS011;8431;52.458;9.998;2023-07-28T04:18:08;6.57;;;5.88;;
16634;SDS011;8431;52.458;9.998;2023-07-28T04:20:37;5.63;;;5.30;;
16634;SDS011;8431;52.458;9.998;2023-07-28T04:23:04;5.32;;;4.93;;
16634;SDS011;8431;52.458;9.998;2023-07-28T04:25:30;6.20;;;5.70;;
16634;SDS011;8431;52.458;9.998;2023-07-28T04:27:57;5.70;;;5.25;;
16634;SDS011;8431;52.458;9.998;2023-07-28T04:30:24;5.68;;;4.53;;
16634;SDS011;8431;52.458;9.998;2023-07-28T04:32:51;5.13;;;4.82;;
16634;SDS011;8431;52.458;9.998;2023-07-28T04:35:18;5.45;;;5.05;;
16634;SDS011;8431;52.458;9.998;2023-07-28T04:37:47;8.48;;;5.50;;
16634;SDS011;8431;52.458;9.998;2023-07-28T04:40:14;5.35;;;5.05;;
16634;SDS011;8431;52.458;9.998;2023-07-28T04:42:41;5.80;;;4.22;;
16634;SDS011;8431;52.458;9.998;2023-07-28T04:45:08;5.35;;;4.80;;
16634;SDS011;8431;52.458;9.998;2023-07-28T04:47:35;5.05;;;4.65;;
16634;SDS011;8431;52.458;9.998;2023-07-28T04:50:02;5.20;;;4.72;;
16634;SDS011;8431;52.458;9.998;2023-07-28T04:52:30;4.57;;;4.38;;
16634;SDS011;8431;52.458;9.998;2023-07-28T04:54:58;4.75;;;4.38;;
16634;SDS011;8431;52.458;9.998;2023-07-28T04:57:25;4.68;;;4.47;;
16634;SDS011;8431;52.458;9.998;2023-07-28T04:59:52;5.25;;;4.75;;
16634;SDS011;8431;52.458;9.998;2023-07-28T05:02:25;5.05;;;4.63;;
16634;SDS011;8431;52.458;9.998;2023-07-28T05:05:01;5.78;;;5.28;;
16634;SDS011;8431;52.458;9.998;2023-07-28T05:07:31;5.95;;;5.45;;
16634;SDS011;8431;52.458;9.998;2023-07-28T05:09:59;5.80;;;5.30;;
16634;SDS011;8431;52.458;9.998;2023-07-28T05:12:26;6.00;;;5.57;;
16634;SDS011;8431;52.458;9.998;2023-07-28T05:14:53;5.70;;;5.38;;
16634;SDS011;8431;52.458;9.998;2023-07-28T05:17:21;5.75;;;5.40;;
16634;SDS011;8431;52.458;9.998;2023-07-28T05:19:49;6.63;;;5.43;;
16634;SDS011;8431;52.458;9.998;2023-07-28T05:22:16;6.07;;;5.68;;
16634;SDS011;8431;52.458;9.998;2023-07-28T05:24:43;5.80;;;5.43;;
16634;SDS011;8431;52.458;9.998;2023-07-28T05:27:13;5.18;;;4.80;;
16634;SDS011;8431;52.458;9.998;2023-07-28T05:29:40;5.80;;;5.40;;
16634;SDS011;8431;52.458;9.998;2023-07-28T05:32:07;5.50;;;5.10;;
16634;SDS011;8431;52.458;9.998;2023-07-28T05:34:37;5.85;;;5.55;;
16634;SDS011;8431;52.458;9.998;2023-07-28T05:37:08;5.70;;;5.30;;
16634;SDS011;8431;52.458;9.998;2023-07-28T05:39:34;5.72;;;5.32;;
16634;SDS011;8431;52.458;9.998;2023-07-28T05:42:02;5.60;;;5.30;;
16634;SDS011;8431;52.458;9.998;2023-07-28T05:44:30;5.65;;;5.28;;
16634;SDS011;8431;52.458;9.998;2023-07-28T05:46:57;5.78;;;5.47;;
16634;SDS011;8431;52.458;9.998;2023-07-28T05:49:27;5.32;;;5.07;;
16634;SDS011;8431;52.458;9.998;2023-07-28T05:51:54;5.57;;;5.18;;
16634;SDS011;8431;52.458;9.998;2023-07-28T05:54:21;5.82;;;5.35;;
16634;SDS011;8431;52.458;9.998;2023-07-28T05:56:48;6.18;;;5.88;;
16634;SDS011;8431;52.458;9.998;2023-07-28T05:59:15;7.80;;;5.60;;
16634;SDS011;8431;52.458;9.998;2023-07-28T06:01:44;6.15;;;5.65;;
16634;SDS011;8431;52.458;9.998;2023-07-28T06:04:11;6.78;;;6.40;;
16634;SDS011;8431;52.458;9.998;2023-07-28T06:06:38;6.18;;;5.78;;
16634;SDS011;8431;52.458;9.998;2023-07-28T06:09:05;7.20;;;6.70;;
16634;SDS011;8431;52.458;9.998;2023-07-28T06:11:33;7.05;;;6.38;;
16634;SDS011;8431;52.458;9.998;2023-07-28T06:14:00;7.80;;;7.10;;
16634;SDS011;8431;52.458;9.998;2023-07-28T06:16:28;7.43;;;6.93;;
16634;SDS011;8431;52.458;9.998;2023-07-28T06:18:57;7.22;;;6.72;;
16634;SDS011;8431;52.458;9.998;2023-07-28T06:21:24;7.85;;;7.15;;
16634;SDS011;8431;52.458;9.998;2023-07-28T06:23:54;8.00;;;7.30;;
16634;SDS011;8431;52.458;9.998;2023-07-28T06:26:21;7.85;;;7.18;;
16634;SDS011;8431;52.458;9.998;2023-07-28T06:28:48;7.15;;;6.60;;
16634;SDS011;8431;52.458;9.998;2023-07-28T06:31:15;6.43;;;5.93;;
16634;SDS011;8431;52.458;9.998;2023-07-28T06:33:42;7.28;;;6.82;;
16634;SDS011;8431;52.458;9.998;2023-07-28T06:36:11;6.72;;;6.30;;
16634;SDS011;8431;52.458;9.998;2023-07-28T06:38:38;6.95;;;6.55;;
16634;SDS011;8431;52.458;9.998;2023-07-28T06:41:05;6.47;;;6.07;;
16634;SDS011;8431;52.458;9.998;2023-07-28T06:43:32;6.63;;;6.32;;
16634;SDS011;8431;52.458;9.998;2023-07-28T06:45:59;6.68;;;6.32;;
16634;SDS011;8431;52.458;9.998;2023-07-28T06:48:26;6.80;;;6.38;;
16634;SDS011;8431;52.458;9.998;2023-07-28T06:50:53;6.65;;;6.35;;
16634;SDS011;8431;52.458;9.998;2023-07-28T06:53:21;7.18;;;6.78;;
16634;SDS011;8431;52.458;9.998;2023-07-28T06:55:48;7.00;;;6.70;;
16634;SDS011;8431;52.458;9.998;2023-07-28T06:58:15;7.32;;;6.93;;
16634;SDS011;8431;52.458;9.998;2023-07-28T07:00:42;7.38;;;6.95;;
16634;SDS011;8431;52.458;9.998;2023-07-28T07:03:09;7.10;;;6.80;;
16634;SDS011;8431;52.458;9.998;2023-07-28T07:05:36;7.03;;;6.53;;
16634;SDS011;8431;52.458;9.998;2023-07-28T07:08:03;6.45;;;6.15;;
16634;SDS011;8431;52.458;9.998;2023-07-28T07:10:31;7.28;;;6.88;;
16634;SDS011;8431;52.458;9.998;2023-07-28T07:12:58;7.13;;;6.57;;
16634;SDS011;8431;52.458;9.998;2023-07-28T07:15:25;6.05;;;5.75;;
16634;SDS011;8431;52.458;9.998;2023-07-28T07:17:52;5.97;;;5.78;;
16634;SDS011;8431;52.458;9.998;2023-07-28T07:20:20;6.35;;;6.10;;
16634;SDS011;8431;52.458;9.998;2023-07-28T07:22:48;6.72;;;6.40;;
16634;SDS011;8431;52.458;9.998;2023-07-28T07:25:15;6.38;;;6.07;;
16634;SDS011;8431;52.458;9.998;2023-07-28T07:27:43;6.45;;;6.18;;
16634;SDS011;8431;52.458;9.998;2023-07-28T07:30:11;7.47;;;7.18;;
16634;SDS011;8431;52.458;9.998;2023-07-28T07:32:38;7.47;;;6.97;;
16634;SDS011;8431;52.458;9.998;2023-07-28T07:35:05;7.65;;;7.25;;
16634;SDS011;8431;52.458;9.998;2023-07-28T07:37:33;6.50;;;6.25;;
16634;SDS011;8431;52.458;9.998;2023-07-28T07:40:00;6.90;;;6.60;;
16634;SDS011;8431;52.458;9.998;2023-07-28T07:42:30;6.65;;;6.35;;
16634;SDS011;8431;52.458;9.998;2023-07-28T07:45:09;7.03;;;6.72;;
16634;SDS011;8431;52.458;9.998;2023-07-28T07:47:37;7.97;;;7.32;;
16634;SDS011;8431;52.458;9.998;2023-07-28T07:50:05;6.85;;;6.55;;
16634;SDS011;8431;52.458;9.998;2023-07-28T07:52:34;7.50;;;7.10;;
16634;SDS011;8431;52.458;9.998;2023-07-28T07:55:01;6.85;;;6.55;;
16634;SDS011;8431;52.458;9.998;2023-07-28T07:57:28;7.00;;;6.70;;
16634;SDS011;8431;52.458;9.998;2023-07-28T07:59:57;7.13;;;6.65;;
16634;SDS011;8431;52.458;9.998;2023-07-28T08:02:25;7.00;;;6.70;;
16634;SDS011;8431;52.458;9.998;2023-07-28T08:04:52;6.68;;;6.45;;
16634;SDS011;8431;52.458;9.998;2023-07-28T08:07:20;7.82;;;7.40;;
16634;SDS011;8431;52.458;9.998;2023-07-28T08:09:48;8.40;;;7.97;;
16634;SDS011;8431;52.458;9.998;2023-07-28T08:12:15;7.45;;;7.05;;
16634;SDS011;8431;52.458;9.998;2023-07-28T08:14:42;8.27;;;7.78;;
16634;SDS011;8431;52.458;9.998;2023-07-28T08:17:11;8.20;;;7.68;;
16634;SDS011;8431;52.458;9.998;2023-07-28T08:19:39;8.20;;;7.80;;
16634;SDS011;8431;52.458;9.998;2023-07-28T08:22:06;7.47;;;7.10;;
16634;SDS011;8431;52.458;9.998;2023-07-28T08:24:34;7.75;;;7.35;;
16634;SDS011;8431;52.458;9.998;2023-07-28T08:27:01;8.07;;;7.57;;
16634;SDS011;8431;52.458;9.998;2023-07-28T08:29:28;7.82;;;7.32;;
16634;SDS011;8431;52.458;9.998;2023-07-28T08:31:55;8.77;;;8.20;;
16634;SDS011;8431;52.458;9.998;2023-07-28T08:34:23;8.18;;;7.57;;
16634;SDS011;8431;52.458;9.998;2023-07-28T08:36:51;7.32;;;7.03;;
16634;SDS011;8431;52.458;9.998;2023-07-28T08:39:18;9.18;;;8.63;;
16634;SDS011;8431;52.458;9.998;2023-07-28T08:41:45;7.97;;;7.47;;
16634;SDS011;8431;52.458;9.998;2023-07-28T08:44:12;8.48;;;7.88;;
16634;SDS011;8431;52.458;9.998;2023-07-28T08:46:42;8.98;;;8.35;;
16634;SDS011;8431;52.458;9.998;2023-07-28T08:49:09;8.88;;;8.30;;
16634;SDS011;8431;52.458;9.998;2023-07-28T08:51:40;9.35;;;8.85;;
16634;SDS011;8431;52.458;9.998;2023-07-28T08:54:09;9.15;;;8.55;;
16634;SDS011;8431;52.458;9.998;2023-07-28T08:56:36;9.55;;;8.95;;
16634;SDS011;8431;52.458;9.998;2023-07-28T08:59:03;9.15;;;8.45;;
16634;SDS011;8431;52.458;9.998;2023-07-28T09:01:30;9.20;;;8.80;;
16634;SDS011;8431;52.458;9.998;2023-07-28T09:03:57;9.82;;;9.32;;
16634;SDS011;8431;52.458;9.998;2023-07-28T09:06:28;10.75;;;10.25;;
16634;SDS011;8431;52.458;9.998;2023-07-28T09:08:56;10.85;;;10.23;;
16634;SDS011;8431;52.458;9.998;2023-07-28T09:11:25;11.05;;;10.43;;
16634;SDS011;8431;52.458;9.998;2023-07-28T09:13:53;11.52;;;11.02;;
16634;SDS011;8431;52.458;9.998;2023-07-28T09:16:21;10.68;;;10.18;;
16634;SDS011;8431;52.458;9.998;2023-07-28T09:18:54;10.52;;;9.90;;
16634;SDS011;8431;52.458;9.998;2023-07-28T09:21:30;10.63;;;9.93;;
16634;SDS011;8431;52.458;9.998;2023-07-28T09:23:59;11.05;;;10.52;;
16634;SDS011;8431;52.458;9.998;2023-07-28T09:26:37;10.43;;;9.80;;
16634;SDS011;8431;52.458;9.998;2023-07-28T09:29:14;10.13;;;9.65;;
16634;SDS011;8431;52.458;9.998;2023-07-28T09:31:42;10.65;;;10.25;;
16634;SDS011;8431;52.458;9.998;2023-07-28T09:34:10;10.45;;;10.05;;
16634;SDS011;8431;52.458;9.998;2023-07-28T09:36:36;9.93;;;9.32;;
16634;SDS011;8431;52.458;9.998;2023-07-28T09:39:04;10.63;;;10.18;;
16634;SDS011;8431;52.458;9.998;2023-07-28T09:41:34;10.93;;;10.23;;
16634;SDS011;8431;52.458;9.998;2023-07-28T09:44:03;10.60;;;10.00;;
16634;SDS011;8431;52.458;9.998;2023-07-28T09:46:32;11.95;;;11.00;;
16634;SDS011;8431;52.458;9.998;2023-07-28T09:49:03;10.88;;;10.40;;
16634;SDS011;8431;52.458;9.998;2023-07-28T09:51:36;10.70;;;10.23;;
16634;SDS011;8431;52.458;9.998;2023-07-28T09:54:28;10.55;;;10.13;;
16634;SDS011;8431;52.458;9.998;2023-07-28T09:56:57;9.93;;;9.50;;
16634;SDS011;8431;52.458;9.998;2023-07-28T09:59:27;10.35;;;9.55;;
16634;SDS011;8431;52.458;9.998;2023-07-28T10:01:58;10.63;;;10.13;;
16634;SDS011;8431;52.458;9.998;2023-07-28T10:04:26;11.10;;;10.23;;
16634;SDS011;8431;52.458;9.998;2023-07-28T10:06:53;9.70;;;9.30;;
16634;SDS011;8431;52.458;9.998;2023-07-28T10:09:21;9.82;;;9.38;;
16634;SDS011;8431;52.458;9.998;2023-07-28T10:11:50;9.38;;;8.98;;
16634;SDS011;8431;52.458;9.998;2023-07-28T10:14:26;10.35;;;9.77;;
16634;SDS011;8431;52.458;9.998;2023-07-28T10:16:55;10.15;;;9.70;;
16634;SDS011;8431;52.458;9.998;2023-07-28T10:19:24;10.93;;;10.52;;
16634;SDS011;8431;52.458;9.998;2023-07-28T10:21:58;10.35;;;9.75;;
16634;SDS011;8431;52.458;9.998;2023-07-28T10:27:30;11.50;;;10.73;;
16634;SDS011;8431;52.458;9.998;2023-07-28T10:30:18;11.32;;;10.77;;
16634;SDS011;8431;52.458;9.998;2023-07-28T10:54:03;11.93;;;11.43;;
16634;SDS011;8431;52.458;9.998;2023-07-28T11:00:01;11.00;;;10.30;;
16634;SDS011;8431;52.458;9.998;2023-07-28T11:02:30;10.40;;;10.00;;
16634;SDS011;8431;52.458;9.998;2023-07-28T11:04:57;11.27;;;10.77;;
16634;SDS011;8431;52.458;9.998;2023-07-28T11:07:24;9.88;;;9.52;;
16634;SDS011;8431;52.458;9.998;2023-07-28T11:09:57;11.13;;;10.60;;
16634;SDS011;8431;52.458;9.998;2023-07-28T11:15:01;9.90;;;9.50;;
16634;SDS011;8431;52.458;9.998;2023-07-28T11:17:29;11.05;;;10.55;;
16634;SDS011;8431;52.458;9.998;2023-07-28T11:19:56;10.10;;;9.70;;
16634;SDS011;8431;52.458;9.998;2023-07-28T11:23:04;10.07;;;9.68;;
16634;SDS011;8431;52.458;9.998;2023-07-28T11:28:28;10.48;;;10.07;;
16634;SDS011;8431;52.458;9.998;2023-07-28T11:30:56;12.02;;;11.52;;
16634;SDS011;8431;52.458;9.998;2023-07-28T11:33:25;11.32;;;10.82;;
16634;SDS011;8431;52.458;9.998;2023-07-28T11:35:54;11.68;;;11.07;;
16634;SDS011;8431;52.458;9.998;2023-07-28T11:43:38;10.60;;;10.20;;
16634;SDS011;8431;52.458;9.998;2023-07-28T11:49:06;11.20;;;10.70;;
16634;SDS011;8431;52.458;9.998;2023-07-28T11:51:38;11.00;;;10.60;;
16634;SDS011;8431;52.458;9.998;2023-07-28T11:54:08;11.98;;;11.38;;
16634;SDS011;8431;52.458;9.998;2023-07-28T11:56:40;11.43;;;10.77;;
16634;SDS011;8431;52.458;9.998;2023-07-28T12:45:25;11.63;;;11.20;;
16634;SDS011;8431;52.458;9.998;2023-07-28T12:47:52;12.63;;;12.02;;
16634;SDS011;8431;52.458;9.998;2023-07-28T12:50:21;12.38;;;11.88;;
16634;SDS011;8431;52.458;9.998;2023-07-28T12:52:49;12.20;;;11.55;;
16634;SDS011;8431;52.458;9.998;2023-07-28T12:55:16;11.02;;;10.43;;
16634;SDS011;8431;52.458;9.998;2023-07-28T12:57:44;11.18;;;10.77;;
16634;SDS011;8431;52.458;9.998;2023-07-28T13:00:13;11.05;;;10.55;;
16634;SDS011;8431;52.458;9.998;2023-07-28T13:02:42;11.35;;;10.73;;
16634;SDS011;8431;52.458;9.998;2023-07-28T13:05:13;11.43;;;10.93;;
16634;SDS011;8431;52.458;9.998;2023-07-28T13:07:42;12.85;;;12.25;;
16634;SDS011;8431;52.458;9.998;2023-07-28T13:10:10;11.77;;;11.02;;
16634;SDS011;8431;52.458;9.998;2023-07-28T13:12:38;11.50;;;10.95;;
16634;SDS011;8431;52.458;9.998;2023-07-28T13:15:05;11.80;;;11.20;;
16634;SDS011;8431;52.458;9.998;2023-07-28T13:17:33;11.98;;;11.48;;
16634;SDS011;8431;52.458;9.998;2023-07-28T13:20:01;11.65;;;11.25;;
16634;SDS011;8431;52.458;9.998;2023-07-28T13:22:28;11.73;;;11.13;;
16634;SDS011;8431;52.458;9.998;2023-07-28T13:24:55;11.15;;;10.68;;
16634;SDS011;8431;52.458;9.998;2023-07-28T13:27:22;11.65;;;11.15;;
16634;SDS011;8431;52.458;9.998;2023-07-28T13:29:50;12.18;;;11.48;;
16634;SDS011;8431;52.458;9.998;2023-07-28T13:32:24;10.82;;;10.40;;
16634;SDS011;8431;52.458;9.998;2023-07-28T13:34:52;10.65;;;10.15;;
16634;SDS011;8431;52.458;9.998;2023-07-28T13:37:20;12.23;;;11.63;;
16634;SDS011;8431;52.458;9.998;2023-07-28T13:39:51;10.25;;;9.85;;
16634;SDS011;8431;52.458;9.998;2023-07-28T13:44:56;11.82;;;11.20;;
16634;SDS011;8431;52.458;9.998;2023-07-28T13:47:24;11.68;;;11.18;;
16634;SDS011;8431;52.458;9.998;2023-07-28T13:49:51;12.00;;;11.38;;
16634;SDS011;8431;52.458;9.998;2023-07-28T13:52:21;11.90;;;11.18;;
16634;SDS011;8431;52.458;9.998;2023-07-28T13:54:48;13.57;;;12.88;;
16634;SDS011;8431;52.458;9.998;2023-07-28T13:57:15;12.35;;;11.85;;
16634;SDS011;8431;52.458;9.998;2023-07-28T13:59:42;12.57;;;11.98;;
16634;SDS011;8431;52.458;9.998;2023-07-28T14:02:10;11.82;;;11.27;;
16634;SDS011;8431;52.458;9.998;2023-07-28T14:04:37;11.15;;;10.65;;
16634;SDS011;8431;52.458;9.998;2023-07-28T14:07:04;10.98;;;10.50;;
16634;SDS011;8431;52.458;9.998;2023-07-28T14:09:33;11.63;;;11.00;;
16634;SDS011;8431;52.458;9.998;2023-07-28T14:12:01;12.07;;;11.57;;
16634;SDS011;8431;52.458;9.998;2023-07-28T14:14:45;11.77;;;11.27;;
16634;SDS011;8431;52.458;9.998;2023-07-28T14:17:22;11.70;;;11.20;;
16634;SDS011;8431;52.458;9.998;2023-07-28T14:19:49;11.70;;;11.27;;
16634;SDS011;8431;52.458;9.998;2023-07-28T14:22:17;12.52;;;11.93;;
16634;SDS011;8431;52.458;9.998;2023-07-28T14:24:45;11.88;;;11.38;;
16634;SDS011;8431;52.458;9.998;2023-07-28T14:27:12;12.07;;;11.57;;
16634;SDS011;8431;52.458;9.998;2023-07-28T14:29:39;12.57;;;12.07;;
16634;SDS011;8431;52.458;9.998;2023-07-28T14:32:07;12.35;;;11.70;;
16634;SDS011;8431;52.458;9.998;2023-07-28T14:34:34;13.02;;;12.45;;
16634;SDS011;8431;52.458;9.998;2023-07-28T14:37:03;11.90;;;11.30;;
16634;SDS011;8431;52.458;9.998;2023-07-28T14:39:31;12.02;;;11.50;;
16634;SDS011;8431;52.458;9.998;2023-07-28T14:41:59;12.68;;;11.85;;
16634;SDS011;8431;52.458;9.998;2023-07-28T14:44:27;12.55;;;12.05;;
16634;SDS011;8431;52.458;9.998;2023-07-28T14:46:55;11.77;;;11.27;;
16634;SDS011;8431;52.458;9.998;2023-07-28T14:49:22;12.07;;;11.57;;
16634;SDS011;8431;52.458;9.998;2023-07-28T14:51:52;11.55;;;11.05;;
16634;SDS011;8431;52.458;9.998;2023-07-28T14:54:19;12.00;;;11.40;;
16634;SDS011;8431;52.458;9.998;2023-07-28T14:56:46;12.32;;;11.82;;
16634;SDS011;8431;52.458;9.998;2023-07-28T14:59:14;12.63;;;12.13;;
16634;SDS011;8431;52.458;9.998;2023-07-28T15:01:43;11.43;;;10.93;;
16634;SDS011;8431;52.458;9.998;2023-07-28T15:04:11;12.75;;;11.95;;
16634;SDS011;8431;52.458;9.998;2023-07-28T15:06:41;12.48;;;11.98;;
16634;SDS011;8431;52.458;9.998;2023-07-28T15:09:09;12.85;;;12.25;;
16634;SDS011;8431;52.458;9.998;2023-07-28T15:11:36;12.70;;;11.90;;
16634;SDS011;8431;52.458;9.998;2023-07-28T15:14:03;12.30;;;11.75;;
16634;SDS011;8431;52.458;9.998;2023-07-28T15:16:32;13.50;;;12.88;;
16634;SDS011;8431;52.458;9.998;2023-07-28T15:18:59;11.05;;;10.55;;
16634;SDS011;8431;52.458;9.998;2023-07-28T15:21:26;12.50;;;11.90;;
16634;SDS011;8431;52.458;9.998;2023-07-28T15:23:54;12.88;;;12.25;;
16634;SDS011;8431;52.458;9.998;2023-07-28T15:26:21;12.45;;;11.85;;
16634;SDS011;8431;52.458;9.998;2023-07-28T15:28:51;12.13;;;11.63;;
16634;SDS011;8431;52.458;9.998;2023-07-28T15:31:42;13.07;;;12.48;;
16634;SDS011;8431;52.458;9.998;2023-07-28T15:34:09;11.00;;;10.60;;
16634;SDS011;8431;52.458;9.998;2023-07-28T15:36:36;12.75;;;12.05;;
16634;SDS011;8431;52.458;9.998;2023-07-28T15:39:03;14.38;;;13.77;;
16634;SDS011;8431;52.458;9.998;2023-07-28T15:41:30;13.25;;;12.65;;
16634;SDS011;8431;52.458;9.998;2023-07-28T15:43:57;11.10;;;10.70;;
16634;SDS011;8431;52.458;9.998;2023-07-28T15:46:24;11.77;;;11.27;;
16634;SDS011;8431;52.458;9.998;2023-07-28T15:48:52;14.35;;;13.05;;
16634;SDS011;8431;52.458;9.998;2023-07-28T15:51:20;13.57;;;12.68;;
16634;SDS011;8431;52.458;9.998;2023-07-28T15:53:47;13.15;;;12.45;;
16634;SDS011;8431;52.458;9.998;2023-07-28T15:56:14;12.85;;;12.18;;
16634;SDS011;8431;52.458;9.998;2023-07-28T15:58:41;11.98;;;11.35;;
16634;SDS011;8431;52.458;9.998;2023-07-28T16:01:08;12.20;;;11.60;;
16634;SDS011;8431;52.458;9.998;2023-07-28T16:03:35;14.45;;;13.57;;
16634;SDS011;8431;52.458;9.998;2023-07-28T16:06:04;11.55;;;11.05;;
16634;SDS011;8431;52.458;9.998;2023-07-28T16:08:31;11.63;;;10.93;;
16634;SDS011;8431;52.458;9.998;2023-07-28T16:10:58;10.77;;;10.32;;
16634;SDS011;8431;52.458;9.998;2023-07-28T16:13:25;11.63;;;11.13;;
16634;SDS011;8431;52.458;9.998;2023-07-28T16:15:52;11.65;;;11.07;;
16634;SDS011;8431;52.458;9.998;2023-07-28T16:18:19;11.85;;;11.30;;
16634;SDS011;8431;52.458;9.998;2023-07-28T16:20:46;13.15;;;12.45;;
16634;SDS011;8431;52.458;9.998;2023-07-28T16:23:17;12.32;;;11.82;;
16634;SDS011;8431;52.458;9.998;2023-07-28T16:29:00;10.60;;;10.20;;
16634;SDS011;8431;52.458;9.998;2023-07-28T16:31:41;9.80;;;9.32;;